createdAt,value
2022-10-28T00:02:00.718Z,12.40
2022-10-28T00:04:47.435Z,12.30
2022-10-28T00:07:35.660Z,12.20
2022-10-28T00:10:22.363Z,12.30
2022-10-28T00:13:10.713Z,12.30
2022-10-28T00:16:07.341Z,12.50
2022-10-28T00:18:56.692Z,12.50
2022-10-28T00:21:44.601Z,12.50
2022-10-28T00:24:32.680Z,12.50
2022-10-28T00:27:19.368Z,12.40
2022-10-28T00:30:09.638Z,12.30
2022-10-28T00:32:56.428Z,12.30
2022-10-28T00:35:44.810Z,12.20
2022-10-28T00:38:31.491Z,12.20
2022-10-28T00:41:23.648Z,12.20
2022-10-28T00:44:48.509Z,12.20
2022-10-28T00:48:04.647Z,12.20
2022-10-28T00:50:51.992Z,12.20
2022-10-28T00:53:43.663Z,12.10
2022-10-28T00:56:34.394Z,12.10
2022-10-28T00:59:28.665Z,12.10
2022-10-28T01:02:15.861Z,12.00
2022-10-28T01:05:06.652Z,12.00
2022-10-28T01:07:58.004Z,11.90
2022-10-28T01:11:10.625Z,11.90
2022-10-28T01:14:51.540Z,12.00
2022-10-28T01:17:54.656Z,12.00
2022-10-28T01:21:12.650Z,12.10
2022-10-28T01:24:22.624Z,12.10
2022-10-28T01:27:09.354Z,12.10
2022-10-28T01:30:07.727Z,12.00
2022-10-28T01:33:21.636Z,12.00
2022-10-28T01:36:15.943Z,12.00
2022-10-28T01:39:31.078Z,11.90
2022-10-28T01:42:20.623Z,11.90
2022-10-28T01:45:10.364Z,11.90
2022-10-28T01:48:11.083Z,11.80
2022-10-28T01:51:25.294Z,11.80
2022-10-28T01:54:17.199Z,11.80
2022-10-28T01:57:05.519Z,11.80
2022-10-28T01:59:53.251Z,11.80
2022-10-28T02:02:40.770Z,11.80
2022-10-28T02:05:48.436Z,11.70
2022-10-28T02:08:57.711Z,11.70
2022-10-28T02:12:19.584Z,11.70
2022-10-28T02:15:43.071Z,11.70
2022-10-28T02:18:48.859Z,11.80
2022-10-28T02:21:44.640Z,11.80
2022-10-28T02:24:31.354Z,11.80
2022-10-28T02:27:21.119Z,11.90
2022-10-28T02:30:31.994Z,11.90
2022-10-28T02:33:23.603Z,11.90
2022-10-28T02:36:17.323Z,11.90
2022-10-28T02:39:06.190Z,12.00
2022-10-28T02:42:08.579Z,12.10
2022-10-28T02:45:00.626Z,12.10
2022-10-28T02:47:52.836Z,12.20
2022-10-28T02:50:44.339Z,12.30
2022-10-28T02:53:37.235Z,12.30
2022-10-28T02:56:24.046Z,12.30
2022-10-28T02:59:13.595Z,12.30
2022-10-28T03:02:00.403Z,12.20
2022-10-28T03:04:48.599Z,12.10
2022-10-28T03:07:35.363Z,12.10
2022-10-28T03:10:23.635Z,12.10
2022-10-28T03:13:10.415Z,12.10
2022-10-28T03:15:58.627Z,12.20
2022-10-28T03:18:45.966Z,12.30
2022-10-28T03:21:34.603Z,12.30
2022-10-28T03:24:21.300Z,12.30
2022-10-28T03:27:09.586Z,12.40
2022-10-28T03:29:56.290Z,12.30
2022-10-28T03:32:44.591Z,12.30
2022-10-28T03:35:31.306Z,12.20
2022-10-28T03:38:19.586Z,12.20
2022-10-28T03:41:06.387Z,12.20
2022-10-28T03:43:54.591Z,12.20
2022-10-28T03:46:41.347Z,12.20
2022-10-28T03:49:29.573Z,12.20
2022-10-28T03:52:16.248Z,12.20
2022-10-28T03:55:04.593Z,12.20
2022-10-28T03:57:52.237Z,12.30
2022-10-28T04:00:40.623Z,12.30
2022-10-28T04:03:27.422Z,12.50
2022-10-28T04:06:15.581Z,12.50
2022-10-28T04:09:02.245Z,12.60
2022-10-28T04:11:53.607Z,12.60
2022-10-28T04:14:40.297Z,12.60
2022-10-28T04:17:28.608Z,12.50
2022-10-28T04:20:15.299Z,12.40
2022-10-28T04:23:04.074Z,12.30
2022-10-28T04:25:55.004Z,12.30
2022-10-28T04:28:43.581Z,12.30
2022-10-28T04:31:30.258Z,12.20
2022-10-28T04:34:18.615Z,12.20
2022-10-28T04:37:05.361Z,12.20
2022-10-28T04:39:53.577Z,12.20
2022-10-28T04:42:40.319Z,12.30
2022-10-28T04:45:28.550Z,12.40
2022-10-28T04:48:15.367Z,12.50
2022-10-28T04:51:04.559Z,12.40
2022-10-28T04:53:51.250Z,12.30
2022-10-28T04:56:39.608Z,12.30
2022-10-28T04:59:26.377Z,12.20
2022-10-28T05:02:14.662Z,12.20
2022-10-28T05:05:03.580Z,12.20
2022-10-28T05:07:51.805Z,12.40
2022-10-28T05:10:38.750Z,12.50
2022-10-28T05:13:26.559Z,12.70
2022-10-28T05:16:13.275Z,12.70
2022-10-28T05:19:01.564Z,12.80
2022-10-28T05:21:48.269Z,12.80
2022-10-28T05:24:36.568Z,12.80
2022-10-28T05:27:23.292Z,12.80
2022-10-28T05:30:12.604Z,12.70
2022-10-28T05:33:03.855Z,12.70
2022-10-28T05:35:52.553Z,12.60
2022-10-28T05:38:40.187Z,12.50
2022-10-28T05:41:28.582Z,12.50
2022-10-28T05:44:15.425Z,12.50
2022-10-28T05:47:03.565Z,12.60
2022-10-28T05:49:50.283Z,12.60
2022-10-28T05:52:38.618Z,12.70
2022-10-28T05:55:28.349Z,12.70
2022-10-28T05:58:17.596Z,12.80
2022-10-28T06:01:08.055Z,12.80
2022-10-28T06:03:56.552Z,12.80
2022-10-28T06:06:43.346Z,12.80
2022-10-28T06:09:31.556Z,12.80
2022-10-28T06:12:16.703Z,12.80
2022-10-28T06:15:07.030Z,12.90
2022-10-28T06:17:53.709Z,13.00
2022-10-28T06:20:42.039Z,13.10
2022-10-28T06:23:28.723Z,13.10
2022-10-28T06:26:17.020Z,13.10
2022-10-28T06:29:03.725Z,13.10
2022-10-28T06:31:52.050Z,13.10
2022-10-28T06:34:38.723Z,13.00
2022-10-28T06:37:27.120Z,13.10
2022-10-28T06:40:13.853Z,13.10
2022-10-28T06:43:08.021Z,13.00
2022-10-28T06:45:55.802Z,13.00
2022-10-28T06:48:45.541Z,13.10
2022-10-28T06:51:32.748Z,13.10
2022-10-28T06:54:23.545Z,13.10
2022-10-28T06:57:11.263Z,13.20
2022-10-28T06:59:59.542Z,13.20
2022-10-28T07:02:51.528Z,13.20
2022-10-28T07:05:39.558Z,13.30
2022-10-28T07:08:29.631Z,13.40
2022-10-28T07:11:17.556Z,13.40
2022-10-28T07:14:04.181Z,13.40
2022-10-28T07:16:52.548Z,13.50
2022-10-28T07:19:39.230Z,13.60
2022-10-28T07:22:27.570Z,13.70
2022-10-28T07:25:14.328Z,13.80
2022-10-28T07:28:03.550Z,13.80
2022-10-28T07:30:50.249Z,13.80
2022-10-28T07:33:38.567Z,14.00
2022-10-28T07:36:25.306Z,14.00
2022-10-28T07:39:13.562Z,14.10
2022-10-28T07:42:01.394Z,14.10
2022-10-28T07:44:49.559Z,14.10
2022-10-28T07:47:37.457Z,14.20
2022-10-28T07:50:25.593Z,14.30
2022-10-28T07:53:12.329Z,14.40
2022-10-28T07:56:03.558Z,14.60
2022-10-28T07:58:50.590Z,14.80
2022-10-28T08:01:38.717Z,14.90
2022-10-28T08:04:25.556Z,14.90
2022-10-28T08:07:14.560Z,15.00
2022-10-28T08:10:01.529Z,15.10
2022-10-28T08:12:49.781Z,15.10
2022-10-28T08:15:36.480Z,15.10
2022-10-28T08:18:24.507Z,15.10
2022-10-28T08:21:11.903Z,15.10
2022-10-28T08:24:00.500Z,15.10
2022-10-28T08:26:47.203Z,15.00
2022-10-28T08:29:35.553Z,15.10
2022-10-28T08:32:22.223Z,15.10
2022-10-28T08:35:10.532Z,15.10
2022-10-28T08:37:57.304Z,15.10
2022-10-28T08:41:16.531Z,15.20
2022-10-28T08:44:17.976Z,15.40
2022-10-28T08:47:34.577Z,15.30
2022-10-28T08:50:24.426Z,15.30
2022-10-28T08:53:25.557Z,15.30
2022-10-28T08:56:48.444Z,15.40
2022-10-28T08:59:40.528Z,15.40
2022-10-28T09:02:32.989Z,15.50
2022-10-28T09:05:24.518Z,15.50
2022-10-28T09:08:23.715Z,15.70
2022-10-28T09:11:11.494Z,15.80
2022-10-28T09:14:16.982Z,16.00
2022-10-28T09:17:43.503Z,16.10
2022-10-28T09:20:48.537Z,16.10
2022-10-28T09:23:52.523Z,16.30
2022-10-28T09:27:04.273Z,16.40
2022-10-28T09:30:18.512Z,16.60
2022-10-28T09:33:42.800Z,16.90
2022-10-28T09:36:43.489Z,17.20
2022-10-28T09:39:39.901Z,17.90
2022-10-28T09:42:34.590Z,18.80
2022-10-28T09:45:27.276Z,19.70
2022-10-28T09:48:27.501Z,20.50
2022-10-28T09:51:43.264Z,21.30
2022-10-28T09:54:39.509Z,22.60
2022-10-28T09:57:31.599Z,23.90
2022-10-28T10:00:20.523Z,24.80
2022-10-28T10:03:07.220Z,25.10
2022-10-28T10:06:00.519Z,24.30
2022-10-28T10:08:48.178Z,23.10
2022-10-28T10:11:37.215Z,22.30
2022-10-28T10:14:38.865Z,21.70
2022-10-28T10:17:53.524Z,21.40
2022-10-28T10:20:48.807Z,21.50
2022-10-28T10:23:37.437Z,21.70
2022-10-28T10:26:24.193Z,22.00
2022-10-28T10:29:12.489Z,23.10
2022-10-28T10:32:23.029Z,25.80
2022-10-28T10:35:16.727Z,27.30
2022-10-28T10:38:06.091Z,29.40
2022-10-28T10:40:52.973Z,30.40
2022-10-28T10:43:39.930Z,30.90
2022-10-28T10:46:29.544Z,33.00
2022-10-28T10:49:16.251Z,33.20
2022-10-28T10:52:11.495Z,31.40
2022-10-28T10:55:18.988Z,29.90
2022-10-28T10:58:16.489Z,30.30
2022-10-28T11:01:07.445Z,31.50
2022-10-28T11:04:18.510Z,30.90
2022-10-28T11:07:05.881Z,30.00
2022-10-28T11:09:54.510Z,28.60
2022-10-28T11:12:58.469Z,27.40
2022-10-28T11:16:02.897Z,27.30
2022-10-28T11:18:53.618Z,30.10
2022-10-28T11:21:57.159Z,32.00
2022-10-28T11:25:19.498Z,32.00
2022-10-28T11:28:33.500Z,30.40
2022-10-28T11:31:52.206Z,30.00
2022-10-28T11:34:51.317Z,31.50
2022-10-28T11:37:45.899Z,34.40
2022-10-28T11:41:03.580Z,33.20
2022-10-28T11:43:58.576Z,32.00
2022-10-28T11:46:47.681Z,30.40
2022-10-28T11:49:59.263Z,29.00
2022-10-28T11:53:19.805Z,29.10
2022-10-28T11:56:35.938Z,30.80
2022-10-28T11:59:53.435Z,32.20
2022-10-28T12:03:03.825Z,31.20
2022-10-28T12:06:10.222Z,28.80
2022-10-28T12:08:59.685Z,26.50
2022-10-28T12:12:25.502Z,25.40
2022-10-28T12:15:52.408Z,25.20
2022-10-28T12:18:50.470Z,25.40
2022-10-28T12:21:41.645Z,24.80
2022-10-28T12:24:31.500Z,24.60
2022-10-28T12:27:27.752Z,24.60
2022-10-28T12:30:23.474Z,25.40
2022-10-28T12:33:18.445Z,28.70
2022-10-28T12:36:06.510Z,33.50
2022-10-28T12:39:15.609Z,36.60
2022-10-28T12:42:19.477Z,37.80
2022-10-28T12:45:12.823Z,39.20
2022-10-28T12:48:08.468Z,39.40
2022-10-28T12:51:10.865Z,39.00
2022-10-28T12:54:25.510Z,38.40
2022-10-28T12:57:16.274Z,37.60
2022-10-28T13:00:36.456Z,36.50
2022-10-28T13:03:23.291Z,35.90
2022-10-28T13:06:45.463Z,35.60
2022-10-28T13:09:47.126Z,35.10
2022-10-28T13:12:36.923Z,34.20
2022-10-28T13:15:43.947Z,33.40
2022-10-28T13:19:15.984Z,31.80
2022-10-28T13:22:23.752Z,30.70
2022-10-28T13:25:24.527Z,29.70
2022-10-28T13:28:15.561Z,28.80
2022-10-28T13:31:07.479Z,28.20
2022-10-28T13:34:00.254Z,27.60
2022-10-28T13:37:23.580Z,27.10
2022-10-28T13:40:30.558Z,26.70
2022-10-28T13:43:42.477Z,26.20
2022-10-28T13:47:06.992Z,25.70
2022-10-28T13:50:10.539Z,25.10
2022-10-28T13:53:37.294Z,24.80
2022-10-28T13:56:39.468Z,24.60
2022-10-28T13:59:33.623Z,24.30
2022-10-28T14:02:36.263Z,24.00
2022-10-28T14:05:46.967Z,23.70
2022-10-28T14:08:41.494Z,23.50
2022-10-28T14:11:30.316Z,23.30
2022-10-28T14:14:18.470Z,23.30
2022-10-28T14:17:06.058Z,23.20
2022-10-28T14:19:54.465Z,23.20
2022-10-28T14:22:41.368Z,23.20
2022-10-28T14:25:52.461Z,23.10
2022-10-28T14:28:39.118Z,23.10
2022-10-28T14:31:48.448Z,23.10
2022-10-28T14:34:41.284Z,22.90
2022-10-28T14:37:32.484Z,22.80
2022-10-28T14:40:33.300Z,22.70
2022-10-28T14:43:53.453Z,22.40
2022-10-28T14:47:07.826Z,22.30
2022-10-28T14:50:23.437Z,22.30
2022-10-28T14:53:34.374Z,22.20
2022-10-28T14:56:33.477Z,22.10
2022-10-28T14:59:29.875Z,22.20
2022-10-28T15:02:26.546Z,22.20
2022-10-28T15:05:21.668Z,22.20
2022-10-28T15:08:12.452Z,22.10
2022-10-28T15:10:59.189Z,22.10
2022-10-28T15:13:53.445Z,21.90
2022-10-28T15:16:49.505Z,21.80
2022-10-28T15:19:38.463Z,21.60
2022-10-28T15:22:33.068Z,21.40
2022-10-28T15:25:23.495Z,21.20
2022-10-28T15:28:12.165Z,21.10
2022-10-28T15:31:00.464Z,21.00
2022-10-28T15:33:47.295Z,20.90
2022-10-28T15:36:35.498Z,20.90
2022-10-28T15:39:24.721Z,20.80
2022-10-28T15:42:36.515Z,20.70
2022-10-28T15:45:29.983Z,20.60
2022-10-28T15:48:26.435Z,20.50
2022-10-28T15:51:20.735Z,20.40
2022-10-28T15:54:19.483Z,20.30
2022-10-28T15:57:24.839Z,20.10
2022-10-28T16:00:29.449Z,20.00
2022-10-28T16:03:41.233Z,19.90
2022-10-28T16:06:33.455Z,19.80
2022-10-28T16:09:32.358Z,19.60
2022-10-28T16:12:28.510Z,19.50
2022-10-28T16:15:16.524Z,19.30
2022-10-28T16:18:05.270Z,19.20
2022-10-28T16:20:54.686Z,19.10
2022-10-28T16:23:45.494Z,18.90
2022-10-28T16:26:37.068Z,18.90
2022-10-28T16:29:27.850Z,18.80
2022-10-28T16:32:19.779Z,18.70
2022-10-28T16:38:41.581Z,18.50
2022-10-28T16:41:30.573Z,18.50
2022-10-28T16:44:27.459Z,18.50
2022-10-28T16:47:20.286Z,18.40
2022-10-28T16:50:18.761Z,18.40
2022-10-28T16:53:05.629Z,18.40
2022-10-28T16:55:57.073Z,18.30
2022-10-28T16:58:44.200Z,18.10
2022-10-28T17:01:39.677Z,17.90
2022-10-28T17:04:26.730Z,17.70
2022-10-28T17:07:17.461Z,17.60
2022-10-28T17:10:07.738Z,17.60
2022-10-28T17:12:56.938Z,17.50
2022-10-28T17:15:45.809Z,17.30
2022-10-28T17:18:34.458Z,17.10
2022-10-28T17:21:21.213Z,16.90
2022-10-28T17:24:09.416Z,16.90
2022-10-28T17:26:56.166Z,16.80
2022-10-28T17:29:46.106Z,16.90
2022-10-28T17:32:35.051Z,16.80
2022-10-28T17:35:24.508Z,16.70
2022-10-28T17:38:11.289Z,16.70
2022-10-28T17:41:01.561Z,16.70
2022-10-28T17:43:48.293Z,16.60
2022-10-28T17:46:36.473Z,16.60
2022-10-28T17:49:23.272Z,16.50
2022-10-28T17:52:10.149Z,16.50
2022-10-28T17:54:59.768Z,16.40
2022-10-28T17:57:47.571Z,16.50
2022-10-28T18:00:34.292Z,16.60
2022-10-28T18:03:32.848Z,16.40
2022-10-28T18:06:23.522Z,16.50
2022-10-28T18:09:11.287Z,16.50
2022-10-28T18:12:06.784Z,16.50
2022-10-28T18:14:53.477Z,16.50
2022-10-28T18:17:43.024Z,16.50
2022-10-28T18:20:29.771Z,16.40
2022-10-28T18:23:19.750Z,16.50
2022-10-28T18:26:16.353Z,16.40
2022-10-28T18:29:10.082Z,16.40
2022-10-28T18:31:57.509Z,16.40
2022-10-28T18:34:46.521Z,16.40
2022-10-28T18:37:37.466Z,16.30
2022-10-28T18:40:24.240Z,16.10
2022-10-28T18:43:11.082Z,16.00
2022-10-28T18:46:02.303Z,15.90
2022-10-28T18:48:49.494Z,15.70
2022-10-28T18:51:36.692Z,15.60
2022-10-28T18:54:24.332Z,15.60
2022-10-28T18:57:11.121Z,15.50
2022-10-28T19:03:17.222Z,15.50
2022-10-28T19:06:11.499Z,15.60
2022-10-28T19:09:05.012Z,15.60
2022-10-28T19:11:51.810Z,15.60
2022-10-28T19:14:38.670Z,15.50
2022-10-28T19:17:26.861Z,15.50
2022-10-28T19:20:29.917Z,15.50
2022-10-28T19:23:17.449Z,15.40
2022-10-28T19:26:11.252Z,15.30
2022-10-28T19:28:58.076Z,15.30
2022-10-28T19:31:44.874Z,15.20
2022-10-28T19:34:37.419Z,15.20
2022-10-28T19:37:25.038Z,15.10
2022-10-28T19:40:13.421Z,15.10
2022-10-28T19:43:12.604Z,15.10
2022-10-28T19:46:14.450Z,15.20
2022-10-28T19:49:07.095Z,14.90
2022-10-28T19:51:55.488Z,14.90
2022-10-28T19:54:50.828Z,14.80
2022-10-28T19:57:46.613Z,14.70
2022-10-28T20:00:38.730Z,14.60
2022-10-28T20:03:34.406Z,14.60
2022-10-28T20:06:31.968Z,14.60
2022-10-28T20:09:29.129Z,14.40
2022-10-28T20:12:23.839Z,14.30
2022-10-28T20:15:16.971Z,14.50
2022-10-28T20:18:06.720Z,14.40
2022-10-28T20:20:57.465Z,14.40
2022-10-28T20:23:59.141Z,14.50
2022-10-28T20:26:52.350Z,14.50
2022-10-28T20:30:08.653Z,14.60
2022-10-28T20:33:02.051Z,14.50
2022-10-28T20:35:59.156Z,14.30
2022-10-28T20:38:52.448Z,14.40
2022-10-28T20:41:55.013Z,14.40
2022-10-28T20:44:44.434Z,14.60
2022-10-28T20:47:31.236Z,14.60
2022-10-28T20:50:22.454Z,14.50
2022-10-28T20:53:09.294Z,14.50
2022-10-28T20:59:12.472Z,14.40
2022-10-28T21:02:03.611Z,14.40
2022-10-28T21:04:57.450Z,14.40
2022-10-28T21:07:54.846Z,14.40
2022-10-28T21:10:46.703Z,14.40
2022-10-28T21:13:39.155Z,14.40
2022-10-28T21:16:43.422Z,14.40
2022-10-28T21:19:43.738Z,14.50
2022-10-28T21:22:32.451Z,14.30
2022-10-28T21:25:19.304Z,14.30
2022-10-28T21:28:12.767Z,14.20
2022-10-28T21:31:25.391Z,14.10
2022-10-28T21:34:21.407Z,13.90
2022-10-28T21:37:17.584Z,14.00
2022-10-28T21:40:06.423Z,13.90
2022-10-28T21:42:57.244Z,14.00
2022-10-28T21:45:52.549Z,14.00
2022-10-28T21:48:40.021Z,13.90
2022-10-28T21:51:30.133Z,13.90
2022-10-28T21:54:24.348Z,13.90
2022-10-28T21:57:15.662Z,13.80
2022-10-28T22:00:02.971Z,13.90
2022-10-28T22:02:54.873Z,13.90
2022-10-28T22:05:49.942Z,13.80
2022-10-28T22:08:37.024Z,14.00
2022-10-28T22:11:31.389Z,13.90
2022-10-28T22:14:18.242Z,13.80
2022-10-28T22:17:05.004Z,13.80
2022-10-28T22:19:52.416Z,13.80
2022-10-28T22:22:39.274Z,13.90
2022-10-28T22:25:26.055Z,13.80
2022-10-28T22:28:13.082Z,14.00
2022-10-28T22:31:04.981Z,13.90
2022-10-28T22:33:55.341Z,13.90
2022-10-28T22:36:44.907Z,13.80
2022-10-28T22:39:31.686Z,13.70
2022-10-28T22:42:18.481Z,13.70
2022-10-28T22:45:05.771Z,13.70
2022-10-28T22:47:53.145Z,13.70
2022-10-28T22:50:40.133Z,13.90
2022-10-28T22:53:28.433Z,13.70
2022-10-28T22:56:21.084Z,13.70
2022-10-28T22:59:10.073Z,13.70
2022-10-28T23:01:57.951Z,13.80
2022-10-28T23:04:46.362Z,13.70
2022-10-28T23:07:33.171Z,13.70
2022-10-28T23:10:21.360Z,13.70
2022-10-28T23:13:12.707Z,13.70
2022-10-28T23:16:05.421Z,13.80
2022-10-28T23:18:54.791Z,13.80
2022-10-28T23:21:41.560Z,13.70
2022-10-28T23:24:28.421Z,13.70
2022-10-28T23:27:15.244Z,13.60
2022-10-28T23:30:04.403Z,13.60
2022-10-28T23:32:53.391Z,13.50
2022-10-28T23:35:41.729Z,13.50
2022-10-28T23:38:30.649Z,13.30
2022-10-28T23:41:18.953Z,13.20
2022-10-28T23:44:06.169Z,13.20
2022-10-28T23:46:52.974Z,13.30
2022-10-28T23:49:40.036Z,13.10
2022-10-28T23:52:26.865Z,13.30
2022-10-28T23:55:16.583Z,13.30
2022-10-28T23:58:03.421Z,13.30
